CheckWX is a tool to help pilots better visualize weather data.  It is not intended as a substitute for an official pre-flight weather briefing.

12:37:53 UTC

KIWI METAR
Wiscasset Airport
Wiscasset, Maine, USA
Current

45 mins ago

KIWI 271153Z AUTO 00000KT 7SM OVC003 16/14 A3014 RMK AO2 SLP206 T01560144 10156 20150 51005
Observed
Jun-27 @ 11:53 UTC
Visibility
7 SM
Flight Rules
LIFR
Cloud Levels
  • Overcast at 300' AGL
Temperature
16°C / 61°F
Dewpoint
14°C / 57°F
Humidity
88%
Altimeter
30.14" Hg
Pressure
1020.62 hPa
Previous

57 mins ago

KIWI 271141Z AUTO 00000KT 2SM BR OVC002 16/14 A3013 RMK AO2 VIS 1 1/4V4 T01560144
Observed
Jun-27 @ 11:41 UTC
Visibility
2 SM
Flight Rules
LIFR
Conditions
Mist
Cloud Levels
  • Overcast at 200' AGL
Temperature
16°C / 61°F
Dewpoint
14°C / 57°F
Humidity
88%
Altimeter
30.13" Hg
Pressure
1020.32 hPa
Previous

1 hour ago

KIWI 271115Z AUTO 08003KT 3/4SM BR OVC002 15/14 A3013 RMK AO2 T01500144
Observed
Jun-27 @ 11:15 UTC
Wind
  • 080° at 3 KTS
Visibility
3/4 SM
Flight Rules
LIFR
Conditions
Mist
Cloud Levels
  • Overcast at 200' AGL
Temperature
15°C / 59°F
Dewpoint
14°C / 57°F
Humidity
94%
Altimeter
30.13" Hg
Pressure
1020.32 hPa